Time;durP1;ratioP1;P1;durP2;ratioP2;P2;SDS_P1;SDS_P2;PMS_P1;PMS_P2;Temp;Humidity;BMP_temperature;BMP_pressure;BME280_temperature;BME280_humidity;BME280_pressure;Samples;Min_cycle;Max_cycle;Signal;HPM_P1;HPM_P2
2022/08/06 00:00:32;;;;;;;4.08;3.22;;;;;;;24.78;85.53;100322.47;2835955;83;21021;-59
2022/08/06 00:04:35;;;;;;;6.00;3.67;;;;;;;24.62;87.44;100341.44;2825895;81;21424;-58
2022/08/06 00:08:38;;;;;;;4.20;3.85;;;;;;;24.50;88.46;100352.17;2835942;81;21024;-58
2022/08/06 00:12:40;;;;;;;10.00;4.05;;;;;;;24.46;89.83;100341.43;2835603;84;21086;-59
2022/08/06 00:16:42;;;;;;;12.20;4.92;;;;;;;24.33;92.26;100337.72;2834176;84;21091;-63
2022/08/06 00:20:43;;;;;;;10.75;5.85;;;;;;;24.18;95.54;100345.33;2769983;83;21013;-64
2022/08/06 00:24:44;;;;;;;5.53;4.15;;;;;;;23.94;98.23;100354.44;2818482;84;20949;-62
2022/08/06 00:28:45;;;;;;;12.93;6.58;;;;;;;23.69;100.00;100344.27;2832139;83;21063;-63
2022/08/06 00:32:47;;;;;;;11.12;5.78;;;;;;;23.50;100.00;100340.00;2904973;81;21289;-63
2022/08/06 00:36:48;;;;;;;7.25;5.28;;;;;;;23.23;100.00;100331.85;2905219;82;20982;-66
2022/08/06 00:40:51;;;;;;;11.88;5.65;;;;;;;23.00;100.00;100371.58;2904349;80;21081;-60
2022/08/06 00:44:52;;;;;;;10.82;7.08;;;;;;;22.77;100.00;100370.58;2848419;82;20943;-62
2022/08/06 00:48:53;;;;;;;8.00;6.33;;;;;;;22.66;100.00;100363.88;2898900;82;21018;-61
2022/08/06 00:52:54;;;;;;;6.28;5.50;;;;;;;22.49;100.00;100379.68;2908546;81;20983;-62
2022/08/06 00:56:55;;;;;;;9.33;6.65;;;;;;;22.45;100.00;100383.80;2904720;82;21001;-60
2022/08/06 01:00:56;;;;;;;6.65;5.75;;;;;;;22.44;100.00;100382.14;2904860;82;21027;-61
2022/08/06 01:04:58;;;;;;;7.78;7.08;;;;;;;22.39;100.00;100380.84;2896943;81;21217;-61
2022/08/06 01:08:59;;;;;;;8.15;7.00;;;;;;;22.32;100.00;100385.41;2851009;83;21041;-63
2022/08/06 01:13:00;;;;;;;7.05;5.85;;;;;;;22.20;100.00;100395.12;2861013;82;20977;-60
2022/08/06 01:17:22;;;;;;;6.95;5.15;;;;;;;21.88;100.00;100398.28;2906768;81;21022;-61
2022/08/06 01:21:32;;;;;;;6.35;4.53;;;;;;;21.57;100.00;100396.79;2893197;81;21041;-65
2022/08/06 01:26:18;;;;;;;6.15;5.55;;;;;;;21.36;100.00;100406.61;2910752;81;21086;-61
2022/08/06 01:30:23;;;;;;;6.70;5.75;;;;;;;21.07;100.00;100429.20;2816415;83;21043;-62
2022/08/06 01:34:29;;;;;;;3.80;3.47;;;;;;;20.92;100.00;100450.86;2900072;81;20975;-61
2022/08/06 01:38:36;;;;;;;8.50;4.62;;;;;;;20.55;100.00;100458.91;2928504;81;21011;-62
2022/08/06 01:42:40;;;;;;;7.90;4.45;;;;;;;20.28;100.00;100472.06;2933671;81;21256;-60
2022/08/06 01:46:46;;;;;;;5.30;4.58;;;;;;;20.05;100.00;100478.38;2931074;80;21007;-60
2022/08/06 01:50:49;;;;;;;6.00;4.15;;;;;;;19.80;100.00;100485.29;2935647;79;21003;-60
2022/08/06 01:54:54;;;;;;;3.70;3.05;;;;;;;19.65;100.00;100508.19;2939271;81;21045;-59
2022/08/06 01:58:58;;;;;;;3.83;2.83;;;;;;;19.44;100.00;100537.68;2935612;81;20976;-59
2022/08/06 02:03:01;;;;;;;9.88;3.15;;;;;;;19.18;100.00;100536.15;2934797;81;20973;-60
2022/08/06 02:07:25;;;;;;;5.50;3.50;;;;;;;19.03;100.00;100540.92;2934578;81;20995;-60
2022/08/06 02:11:26;;;;;;;2.83;2.52;;;;;;;18.79;100.00;100548.56;2929484;81;20960;-59
2022/08/06 02:15:30;;;;;;;5.03;2.77;;;;;;;18.50;100.00;100568.86;2837475;84;21259;-61
2022/08/06 02:19:46;;;;;;;4.30;2.15;;;;;;;18.52;100.00;100570.34;2934509;80;21008;-60
2022/08/06 02:23:49;;;;;;;6.62;2.30;;;;;;;18.25;100.00;100576.45;2922373;81;21053;-59
2022/08/06 02:27:53;;;;;;;2.90;1.85;;;;;;;18.27;100.00;100571.73;2925941;81;20996;-61
2022/08/06 02:32:00;;;;;;;5.33;1.27;;;;;;;18.03;100.00;100576.61;2864620;81;20960;-60
2022/08/06 02:36:22;;;;;;;2.52;1.37;;;;;;;17.93;100.00;100556.56;2925746;80;21063;-60
2022/08/06 02:40:28;;;;;;;3.92;1.55;;;;;;;17.91;100.00;100551.03;2925924;81;20966;-59
2022/08/06 02:44:56;;;;;;;8.48;2.30;;;;;;;17.95;100.00;100561.78;2923402;81;21027;-60
2022/08/06 02:49:08;;;;;;;2.27;2.08;;;;;;;17.88;100.00;100597.08;2925794;81;21242;-60
2022/08/06 02:53:19;;;;;;;2.55;2.00;;;;;;;17.79;100.00;100594.39;2911792;81;20935;-61
2022/08/06 02:57:25;;;;;;;2.12;1.75;;;;;;;17.83;100.00;100584.98;2898384;81;21004;-61
2022/08/06 03:01:32;;;;;;;2.85;1.57;;;;;;;17.78;100.00;100581.95;2926331;80;20957;-60
2022/08/06 03:05:34;;;;;;;1.95;1.20;;;;;;;17.74;100.00;100599.44;2904740;81;21027;-60
2022/08/06 03:10:07;;;;;;;2.83;1.70;;;;;;;17.53;100.00;100613.33;2899903;81;21033;-61
2022/08/06 03:14:12;;;;;;;3.85;2.05;;;;;;;17.40;100.00;100618.69;2902570;81;21036;-60
2022/08/06 03:18:16;;;;;;;4.78;1.80;;;;;;;17.12;100.00;100614.86;2901644;81;21053;-59
2022/08/06 03:22:20;;;;;;;3.90;1.98;;;;;;;16.99;100.00;100638.62;2898365;81;20980;-60
2022/08/06 03:26:22;;;;;;;2.67;1.60;;;;;;;16.90;100.00;100647.14;2928840;81;20970;-60
2022/08/06 03:30:25;;;;;;;1.82;1.40;;;;;;;16.87;100.00;100650.64;2900067;81;20946;-60
2022/08/06 03:34:29;;;;;;;2.40;1.95;;;;;;;16.79;100.00;100671.05;2921931;81;20996;-59
2022/08/06 03:38:36;;;;;;;2.22;1.42;;;;;;;16.78;100.00;100672.05;2925699;81;21011;-59
2022/08/06 03:42:38;;;;;;;8.38;2.70;;;;;;;16.71;100.00;100676.38;2864972;82;20969;-60
2022/08/06 03:46:50;;;;;;;5.35;1.75;;;;;;;16.77;100.00;100678.43;2861975;83;21016;-59
2022/08/06 03:50:54;;;;;;;2.70;1.92;;;;;;;16.86;100.00;100686.05;2834823;82;21043;-60
2022/08/06 03:55:00;;;;;;;5.45;1.92;;;;;;;16.77;100.00;100695.06;2834994;83;21038;-62
2022/08/06 03:59:04;;;;;;;3.72;2.95;;;;;;;16.85;100.00;100685.22;2832295;83;21063;-60
2022/08/06 04:03:08;;;;;;;4.17;2.65;;;;;;;16.90;100.00;100682.07;2835160;83;21071;-60
2022/08/06 04:07:18;;;;;;;3.50;2.27;;;;;;;16.93;100.00;100691.16;2765765;83;21612;-60
2022/08/06 04:11:20;;;;;;;2.37;2.00;;;;;;;16.92;100.00;100700.22;2790506;84;21036;-60
2022/08/06 04:15:23;;;;;;;3.60;1.98;;;;;;;16.93;100.00;100699.22;2819812;84;21004;-59
2022/08/06 04:19:24;;;;;;;2.35;2.02;;;;;;;16.93;100.00;100711.30;2827721;83;21044;-59
2022/08/06 04:23:38;;;;;;;2.30;2.10;;;;;;;17.00;100.00;100714.24;2788442;83;21055;-61
2022/08/06 04:27:43;;;;;;;2.27;2.08;;;;;;;16.92;100.00;100727.57;2833549;83;21262;-60
2022/08/06 04:31:50;;;;;;;2.35;2.15;;;;;;;16.91;100.00;100729.92;2805764;83;21139;-59
2022/08/06 04:35:52;;;;;;;6.10;3.70;;;;;;;16.99;100.00;100733.54;2805446;85;21046;-60
2022/08/06 04:40:07;;;;;;;7.40;5.72;;;;;;;17.03;100.00;100731.87;2805602;83;20977;-60
2022/08/06 04:44:10;;;;;;;10.95;8.63;;;;;;;17.02;100.00;100746.31;2815633;83;20996;-60
2022/08/06 04:48:12;;;;;;;13.43;10.38;;;;;;;17.07;100.00;100750.71;2848595;82;21011;-60
2022/08/06 04:52:25;;;;;;;11.12;8.70;;;;;;;17.11;100.00;100756.14;2847484;83;21002;-60
2022/08/06 04:56:26;;;;;;;12.78;9.08;;;;;;;17.16;100.00;100758.33;2853065;83;21051;-60
2022/08/06 05:00:27;;;;;;;13.90;10.20;;;;;;;17.20;100.00;100760.55;2852895;82;21060;-60
2022/08/06 05:04:44;;;;;;;9.03;8.10;;;;;;;17.18;100.00;100771.11;2853164;83;21037;-62
2022/08/06 05:08:50;;;;;;;9.33;6.62;;;;;;;17.22;100.00;100785.44;2847041;82;21039;-60
2022/08/06 05:12:56;;;;;;;8.33;6.15;;;;;;;17.25;100.00;100787.80;2826206;81;21003;-60
2022/08/06 05:17:01;;;;;;;7.90;6.50;;;;;;;17.20;100.00;100810.28;2847786;83;21635;-60
2022/08/06 05:21:04;;;;;;;11.17;7.33;;;;;;;17.14;100.00;100812.27;2845538;82;20980;-61
2022/08/06 05:25:07;;;;;;;9.10;6.37;;;;;;;17.16;100.00;100823.70;2831076;83;21040;-60
2022/08/06 05:29:08;;;;;;;16.48;9.03;;;;;;;17.24;100.00;100820.23;2836313;83;21051;-60
2022/08/06 05:33:11;;;;;;;11.00;9.10;;;;;;;17.15;100.00;100826.53;2820730;83;21046;-59
2022/08/06 05:37:13;;;;;;;13.00;9.73;;;;;;;17.23;100.00;100840.88;2820384;83;21000;-61
2022/08/06 05:41:14;;;;;;;16.48;12.47;;;;;;;17.30;100.00;100847.00;2814228;83;21041;-60
2022/08/06 05:45:19;;;;;;;14.18;11.80;;;;;;;17.33;100.00;100854.75;2844169;83;21010;-61
2022/08/06 05:49:48;;;;;;;11.90;9.20;;;;;;;17.27;100.00;100858.90;2849899;83;20971;-59
2022/08/06 05:53:58;;;;;;;11.45;8.80;;;;;;;17.25;100.00;100853.66;2847301;83;21031;-59
2022/08/06 05:58:07;;;;;;;9.88;7.83;;;;;;;17.22;100.00;100860.70;2843341;81;20968;-60
2022/08/06 06:02:11;;;;;;;9.13;6.90;;;;;;;17.21;100.00;100873.80;2843968;83;21046;-60
2022/08/06 06:06:13;;;;;;;9.35;6.70;;;;;;;17.25;100.00;100851.49;2844744;83;21016;-60
2022/08/06 06:10:15;;;;;;;10.25;5.62;;;;;;;17.22;100.00;100866.08;2831081;83;21035;-60
2022/08/06 06:14:25;;;;;;;5.72;4.78;;;;;;;17.23;100.00;100857.02;2820823;83;20984;-60
2022/08/06 06:18:59;;;;;;;6.17;4.28;;;;;;;17.17;100.00;100868.40;2807042;84;21066;-61
2022/08/06 06:23:07;;;;;;;5.72;5.00;;;;;;;17.23;100.00;100868.28;2840325;83;21033;-61
2022/08/06 06:27:31;;;;;;;4.45;3.60;;;;;;;17.27;100.00;100869.14;2835236;81;21075;-59
2022/08/06 06:32:19;;;;;;;3.17;2.87;;;;;;;17.19;100.00;100878.98;2829494;84;21020;-58
2022/08/06 06:36:38;;;;;;;6.72;3.40;;;;;;;17.23;100.00;100883.89;2834051;84;21076;-59
2022/08/06 06:40:51;;;;;;;6.92;3.87;;;;;;;17.21;100.00;100892.62;2824356;83;21284;-60
2022/08/06 06:45:14;;;;;;;2.58;2.25;;;;;;;17.31;100.00;100902.46;2808608;84;21035;-60
2022/08/06 06:49:37;;;;;;;3.45;2.80;;;;;;;17.26;100.00;100911.81;2805096;84;21036;-58
2022/08/06 06:53:43;;;;;;;3.25;2.90;;;;;;;17.22;100.00;100911.78;2818605;84;21019;-59
2022/08/06 06:57:57;;;;;;;9.23;3.77;;;;;;;17.25;100.00;100916.02;2826253;84;21059;-60
2022/08/06 07:01:59;;;;;;;4.58;2.70;;;;;;;17.20;100.00;100921.02;2783379;84;21048;-60
2022/08/06 07:06:08;;;;;;;5.33;3.40;;;;;;;17.26;100.00;100928.45;2834845;83;21011;-60
2022/08/06 07:10:12;;;;;;;3.58;2.75;;;;;;;17.30;100.00;100923.62;2837056;81;21036;-60
2022/08/06 07:14:15;;;;;;;3.05;2.85;;;;;;;17.39;100.00;100937.47;2814150;84;20980;-58
2022/08/06 07:18:18;;;;;;;4.62;3.30;;;;;;;17.59;100.00;100935.95;2835490;81;20950;-59
2022/08/06 07:22:22;;;;;;;2.58;2.37;;;;;;;17.70;100.00;100934.37;2800123;84;20985;-59
2022/08/06 07:26:24;;;;;;;4.30;2.98;;;;;;;17.75;100.00;100947.33;2821346;81;21019;-57
2022/08/06 07:30:28;;;;;;;3.30;3.00;;;;;;;17.80;100.00;100948.55;2833474;84;21067;-58
2022/08/06 07:34:32;;;;;;;3.20;2.90;;;;;;;17.79;100.00;100946.03;2817413;83;20980;-61
2022/08/06 07:38:40;;;;;;;8.15;2.80;;;;;;;17.77;100.00;100957.43;2816374;84;20976;-59
2022/08/06 07:42:44;;;;;;;3.72;2.35;;;;;;;17.88;100.00;100957.67;2835305;83;21003;-58
2022/08/06 07:46:54;;;;;;;2.60;2.40;;;;;;;18.01;100.00;100968.87;2794106;84;20991;-61
2022/08/06 07:50:57;;;;;;;2.30;1.92;;;;;;;18.06;100.00;100976.00;2774477;82;73439;-87
2022/08/06 07:54:59;;;;;;;4.03;2.55;;;;;;;18.17;98.15;100976.75;2836215;82;21066;-91
2022/08/06 07:59:03;;;;;;;3.45;1.77;;;;;;;18.19;96.24;100983.68;2831579;82;21012;-89
2022/08/06 08:07:28;;;;;;;2.87;1.30;;;;;;;18.40;94.60;100992.70;2804149;82;21070;-89
2022/08/06 08:11:30;;;;;;;3.22;1.27;;;;;;;18.48;94.67;101004.55;2850414;81;21012;-92
2022/08/06 08:15:32;;;;;;;2.85;1.55;;;;;;;18.53;92.67;101007.59;2836411;81;21062;-88
2022/08/06 08:19:35;;;;;;;2.33;1.82;;;;;;;18.46;90.37;101012.77;2752977;84;21071;-91
2022/08/06 08:23:40;;;;;;;1.98;1.52;;;;;;;18.62;92.86;101003.09;2813594;82;21051;-89
2022/08/06 08:27:41;;;;;;;4.08;1.60;;;;;;;18.73;91.40;101007.34;2825592;81;21707;-89
2022/08/06 08:31:42;;;;;;;1.05;0.98;;;;;;;18.89;91.31;101004.72;2815439;81;21651;-88
2022/08/06 08:35:47;;;;;;;1.98;1.62;;;;;;;19.06;89.07;101020.45;2810360;83;21027;-89
2022/08/06 08:39:49;;;;;;;1.50;0.98;;;;;;;19.16;88.83;101018.97;2839221;81;21121;-92
2022/08/06 08:44:01;;;;;;;1.67;1.30;;;;;;;19.19;89.09;101022.68;2785122;82;21059;-93
2022/08/06 08:48:04;;;;;;;5.12;1.62;;;;;;;19.51;88.99;101034.55;2832014;82;21050;-92
2022/08/06 08:52:13;;;;;;;3.20;1.98;;;;;;;19.78;85.12;101031.19;2828159;82;20978;-90
2022/08/06 08:56:16;;;;;;;1.95;1.70;;;;;;;20.05;84.01;101024.30;2829677;83;21023;-92
2022/08/06 09:00:17;;;;;;;4.35;1.77;;;;;;;20.10;81.87;101021.42;2828842;83;21031;-92
2022/08/06 09:04:19;;;;;;;3.20;1.37;;;;;;;20.19;81.86;101028.16;2824739;81;21052;-95
2022/08/06 09:08:21;;;;;;;2.67;1.82;;;;;;;20.08;78.93;101019.41;2824861;82;21099;-92
2022/08/06 09:12:22;;;;;;;2.55;1.27;;;;;;;20.40;78.95;101021.69;2821225;82;21130;-93
2022/08/06 09:16:23;;;;;;;1.95;1.02;;;;;;;20.85;78.46;101017.69;2785583;82;21360;-91
2022/08/06 09:20:25;;;;;;;2.65;1.57;;;;;;;20.81;76.77;101017.19;2775076;84;21024;-93
2022/08/06 09:24:27;;;;;;;1.27;1.17;;;;;;;20.97;78.47;101013.59;2823399;81;20991;-90
2022/08/06 09:28:43;;;;;;;1.07;0.88;;;;;;;21.25;73.90;101022.05;2822992;82;21020;-86
2022/08/06 09:32:47;;;;;;;1.17;0.80;;;;;;;21.31;73.85;101023.70;2796323;83;20961;-86
2022/08/06 09:36:50;;;;;;;5.20;1.10;;;;;;;21.29;74.34;101029.28;2859420;80;21579;-91
2022/08/06 09:41:10;;;;;;;3.00;1.03;;;;;;;21.12;71.78;101028.02;2872050;81;21001;-91
2022/08/06 09:45:14;;;;;;;1.22;1.10;;;;;;;21.09;73.62;101035.66;2910222;80;21549;-91
2022/08/06 09:49:18;;;;;;;1.80;1.37;;;;;;;21.32;73.26;101032.15;2950567;79;21052;-92
2022/08/06 09:53:21;;;;;;;1.90;1.30;;;;;;;21.68;73.27;101037.83;2951384;79;21022;-90
2022/08/06 09:57:30;;;;;;;2.55;1.00;;;;;;;21.69;69.43;101039.52;2949827;78;21054;-90
2022/08/06 10:01:43;;;;;;;2.30;1.00;;;;;;;21.74;70.60;101043.05;2954598;78;20985;-92
2022/08/06 10:05:45;;;;;;;0.80;0.80;;;;;;;21.77;70.94;101041.84;2949886;80;21019;-93
2022/08/06 10:09:56;;;;;;;2.40;0.80;;;;;;;21.66;67.10;101045.83;2956196;78;21087;-92
2022/08/06 10:13:57;;;;;;;1.05;0.72;;;;;;;21.96;71.69;101045.91;2968387;79;20977;-88
2022/08/06 10:17:58;;;;;;;2.55;1.42;;;;;;;22.01;66.43;101047.58;2953785;79;21061;-92
2022/08/06 10:22:15;;;;;;;1.55;1.20;;;;;;;22.20;65.55;101050.76;2945034;78;21042;-90
2022/08/06 10:26:31;;;;;;;1.25;1.15;;;;;;;22.35;70.33;101048.92;2940376;80;21046;-91
2022/08/06 10:30:33;;;;;;;0.88;0.78;;;;;;;22.28;66.87;101046.63;2947444;78;21040;-88
2022/08/06 10:34:36;;;;;;;0.85;0.82;;;;;;;22.21;65.50;101042.46;2950550;78;21331;-90
2022/08/06 10:38:41;;;;;;;0.90;0.60;;;;;;;22.33;67.96;101044.20;2945461;80;21012;-96
2022/08/06 10:42:46;;;;;;;0.80;0.70;;;;;;;22.46;67.05;101046.27;2946963;80;21016;-88
2022/08/06 10:50:53;;;;;;;1.25;1.05;;;;;;;22.36;64.09;101043.83;2906430;81;21149;-90
2022/08/06 10:54:56;;;;;;;2.92;0.85;;;;;;;22.58;63.44;101039.06;2904575;81;20992;-92
2022/08/06 10:58:57;;;;;;;0.70;0.60;;;;;;;22.71;62.81;101041.11;2895282;82;21038;-88
2022/08/06 11:03:07;;;;;;;0.65;0.60;;;;;;;22.66;63.97;101042.52;2903509;81;20985;-89
2022/08/06 11:07:34;;;;;;;2.08;0.90;;;;;;;22.78;62.89;101031.18;2706762;86;21052;-88
2022/08/06 11:11:49;;;;;;;1.05;0.98;;;;;;;22.80;61.55;101029.16;2759476;85;21079;-90
2022/08/06 11:15:52;;;;;;;1.35;1.00;;;;;;;22.85;62.65;101029.92;2668960;87;21102;-92
2022/08/06 11:19:54;;;;;;;3.40;1.55;;;;;;;22.83;63.49;101022.81;2759984;85;21047;-89
2022/08/06 11:24:01;;;;;;;4.08;0.95;;;;;;;22.85;63.78;101022.64;2751222;85;21019;-95
2022/08/06 11:28:04;;;;;;;1.32;0.85;;;;;;;22.76;61.16;101026.47;2709101;85;21058;-92
2022/08/06 11:32:11;;;;;;;1.12;0.70;;;;;;;22.84;58.51;101020.95;2767543;85;20995;-91
2022/08/06 11:36:27;;;;;;;0.78;0.65;;;;;;;23.07;61.11;101032.18;2735367;85;21759;-93
2022/08/06 11:40:32;;;;;;;1.55;0.98;;;;;;;23.07;61.42;101013.19;2747210;85;21054;-92
2022/08/06 11:44:35;;;;;;;1.50;1.40;;;;;;;23.01;61.80;101022.92;2779275;81;21074;-95
2022/08/06 11:48:59;;;;;;;1.52;1.37;;;;;;;23.20;60.57;101032.34;2942783;80;21061;-91
2022/08/06 11:53:00;;;;;;;1.52;0.98;;;;;;;23.18;61.48;101026.77;2932420;81;21577;-86
2022/08/06 11:57:10;;;;;;;1.20;0.80;;;;;;;23.12;61.84;101025.66;2936035;81;20991;-88
2022/08/06 12:01:11;;;;;;;1.20;0.88;;;;;;;23.21;58.17;101023.17;2934123;80;21003;-88
2022/08/06 12:05:20;;;;;;;0.70;0.57;;;;;;;23.06;60.77;101033.22;2931249;79;21051;-90
2022/08/06 12:09:32;;;;;;;1.72;0.78;;;;;;;23.11;56.82;101035.69;2925342;80;21562;-89
2022/08/06 12:13:39;;;;;;;1.15;0.60;;;;;;;23.22;57.34;101034.34;2888556;81;21007;-88
2022/08/06 12:17:58;;;;;;;1.60;0.80;;;;;;;23.43;59.69;101026.44;2920702;81;21311;-89
2022/08/06 12:22:00;;;;;;;1.80;0.72;;;;;;;23.44;60.39;101020.83;2903545;80;21017;-90
2022/08/06 12:26:01;;;;;;;0.68;0.50;;;;;;;23.41;59.36;101019.86;2923757;79;20997;-90
2022/08/06 12:30:09;;;;;;;3.02;0.98;;;;;;;23.44;59.87;101019.47;2932056;79;20983;-91
2022/08/06 12:34:16;;;;;;;1.32;0.78;;;;;;;23.47;58.69;101013.64;2928428;81;21032;-92
2022/08/06 12:38:19;;;;;;;0.55;0.55;;;;;;;23.61;57.58;101008.35;2900215;81;20988;-92
2022/08/06 12:42:25;;;;;;;0.68;0.53;;;;;;;23.80;59.97;101007.69;2914736;79;21058;-92
2022/08/06 12:46:27;;;;;;;1.10;0.90;;;;;;;23.80;57.32;101009.04;2912980;80;21646;-88
2022/08/06 12:50:31;;;;;;;1.32;0.60;;;;;;;23.90;55.14;101008.70;2890818;81;21039;-94
2022/08/06 12:54:32;;;;;;;2.33;0.73;;;;;;;23.92;53.48;101005.77;2918492;81;21063;-92
2022/08/06 12:58:37;;;;;;;2.17;0.68;;;;;;;23.84;54.10;101005.39;2800464;81;21048;-93
2022/08/06 13:02:39;;;;;;;13.10;1.15;;;;;;;24.00;55.62;101001.56;2892501;81;21015;-91
2022/08/06 13:06:41;;;;;;;1.20;0.72;;;;;;;24.02;54.75;100999.52;2928347;79;21004;-92
2022/08/06 13:10:54;;;;;;;0.57;0.40;;;;;;;24.00;56.60;100989.34;2934084;81;21003;-94
2022/08/06 13:14:59;;;;;;;10.65;0.70;;;;;;;24.03;51.08;100989.48;2933227;81;21011;-92
2022/08/06 13:19:07;;;;;;;0.87;0.50;;;;;;;24.21;53.34;100987.62;2878005;81;21018;-94
2022/08/06 13:23:11;;;;;;;0.40;0.40;;;;;;;24.30;51.73;100988.31;2905722;79;21003;-93
2022/08/06 13:27:13;;;;;;;0.60;0.40;;;;;;;24.57;51.63;100974.84;2925493;79;29874;-93
2022/08/06 13:31:19;;;;;;;1.42;0.82;;;;;;;24.68;53.99;100990.06;2912143;81;20999;-93
2022/08/06 13:35:27;;;;;;;0.47;0.30;;;;;;;24.68;55.41;100979.72;2917329;81;21058;-94
2022/08/06 13:39:31;;;;;;;0.42;0.42;;;;;;;24.68;49.90;100974.28;2897847;81;21537;-95
2022/08/06 13:43:43;;;;;;;0.40;0.40;;;;;;;24.77;51.63;100972.25;2928133;81;21015;-90
2022/08/06 13:47:44;;;;;;;1.05;0.53;;;;;;;24.82;52.88;100981.99;2907241;80;21066;-94
2022/08/06 13:51:46;;;;;;;1.60;0.50;;;;;;;24.76;53.13;100981.42;2917863;81;21565;-93
2022/08/06 13:55:48;;;;;;;1.27;0.72;;;;;;;24.78;50.05;100977.47;2902297;81;21091;-92
2022/08/06 13:59:50;;;;;;;0.82;0.72;;;;;;;24.92;49.47;100979.70;2924613;81;21601;-93
2022/08/06 14:03:51;;;;;;;3.30;0.30;;;;;;;24.90;52.47;100981.80;2917473;81;21020;-94
2022/08/06 14:07:52;;;;;;;2.08;0.40;;;;;;;25.03;52.58;100974.19;2924097;81;21003;-94
2022/08/06 14:12:00;;;;;;;0.53;0.42;;;;;;;25.08;50.85;100976.30;2910799;80;21237;-90
2022/08/06 14:16:01;;;;;;;0.82;0.47;;;;;;;25.16;51.86;100971.20;2902803;81;21565;-93
2022/08/06 14:20:04;;;;;;;0.85;0.30;;;;;;;25.27;49.50;100976.55;2931016;79;21015;-93
2022/08/06 14:24:06;;;;;;;0.85;0.47;;;;;;;25.21;49.74;100965.96;2926988;81;21077;-91
2022/08/06 14:28:07;;;;;;;0.30;0.30;;;;;;;25.07;49.26;100963.23;2922663;80;21043;-94
2022/08/06 14:32:08;;;;;;;0.80;0.40;;;;;;;24.98;49.83;100967.72;2871133;81;20971;-95
2022/08/06 14:36:10;;;;;;;1.47;0.53;;;;;;;24.98;48.73;100972.62;2829866;81;21685;-91
2022/08/06 14:40:13;;;;;;;0.78;0.50;;;;;;;25.03;48.19;100974.73;2928577;79;21041;-93
2022/08/06 14:48:35;;;;;;;3.40;0.20;;;;;;;25.08;49.49;100969.50;2912552;80;21102;-89
2022/08/06 14:52:37;;;;;;;0.70;0.20;;;;;;;25.02;46.52;100958.09;2924443;80;21046;-93
2022/08/06 14:56:38;;;;;;;0.53;0.20;;;;;;;24.88;49.70;100967.56;2927952;80;21027;-91
2022/08/06 15:00:40;;;;;;;1.10;0.62;;;;;;;24.74;48.64;100965.80;2926526;80;21007;-87
2022/08/06 15:04:41;;;;;;;0.60;0.10;;;;;;;24.63;48.34;100965.86;2932442;81;21011;-93
2022/08/06 15:08:43;;;;;;;1.98;0.20;;;;;;;24.66;47.35;100960.87;2926272;81;21574;-93
2022/08/06 15:12:45;;;;;;;0.20;0.17;;;;;;;24.71;47.58;100962.13;2905519;81;21393;-92
2022/08/06 15:16:46;;;;;;;0.47;0.10;;;;;;;24.65;47.32;100958.34;2906289;81;21009;-92
2022/08/06 15:20:50;;;;;;;0.20;0.10;;;;;;;24.65;46.78;100965.14;2909757;81;21003;-92
2022/08/06 15:25:05;;;;;;;2.47;0.30;;;;;;;24.72;48.08;100962.45;2909965;81;21015;-95
2022/08/06 15:29:07;;;;;;;0.23;0.20;;;;;;;24.74;46.29;100959.86;2908833;81;20995;-87
2022/08/06 15:33:15;;;;;;;0.47;0.25;;;;;;;24.82;46.51;100969.75;2929511;80;20995;-90
2022/08/06 15:37:19;;;;;;;0.30;0.20;;;;;;;24.86;48.92;100957.92;2887037;80;21024;-92
2022/08/06 15:41:27;;;;;;;0.30;0.20;;;;;;;24.98;47.90;100948.66;2911675;80;21106;-94
2022/08/06 15:45:37;;;;;;;0.53;0.20;;;;;;;25.02;45.92;100952.64;2903825;81;21593;-92
2022/08/06 15:49:55;;;;;;;0.72;0.25;;;;;;;25.05;46.06;100959.03;2907835;81;22277;-94
2022/08/06 15:54:03;;;;;;;1.77;0.17;;;;;;;25.20;45.69;100954.25;2927786;80;21080;-92
2022/08/06 15:58:11;;;;;;;0.20;0.13;;;;;;;25.37;44.39;100953.31;2902029;80;20994;-90
2022/08/06 16:06:24;;;;;;;0.80;0.40;;;;;;;25.32;48.86;100954.98;2839929;79;72452;-92
2022/08/06 16:10:29;;;;;;;0.80;0.28;;;;;;;25.29;46.92;100955.41;2942694;80;21022;-92
2022/08/06 16:14:31;;;;;;;1.03;0.40;;;;;;;25.31;46.33;100960.97;2943051;80;20983;-91
2022/08/06 16:18:32;;;;;;;0.40;0.30;;;;;;;25.28;47.58;100964.62;2943338;79;21013;-88
2022/08/06 16:22:34;;;;;;;0.90;0.35;;;;;;;25.23;46.77;100961.14;2862995;79;21114;-92
2022/08/06 16:26:38;;;;;;;0.45;0.42;;;;;;;24.98;48.10;100956.29;2853542;80;21062;-95
2022/08/06 16:30:43;;;;;;;1.35;0.30;;;;;;;24.91;46.56;100957.62;2869921;81;21003;-92
2022/08/06 16:34:47;;;;;;;0.75;0.42;;;;;;;24.77;48.01;100966.81;2862062;81;21086;-94
2022/08/06 16:38:49;;;;;;;0.30;0.30;;;;;;;24.67;45.85;100965.80;2862167;83;20987;-95
2022/08/06 16:42:52;;;;;;;0.40;0.20;;;;;;;24.67;47.14;100960.36;2862573;82;21029;-90
2022/08/06 16:46:54;;;;;;;0.85;0.33;;;;;;;24.65;46.15;100965.14;2854608;82;21030;-91
2022/08/06 16:50:57;;;;;;;0.30;0.17;;;;;;;24.59;48.03;100968.17;2851268;81;21030;-92
2022/08/06 16:54:59;;;;;;;0.40;0.40;;;;;;;24.43;48.06;100963.07;2867081;81;21042;-92
2022/08/06 16:59:03;;;;;;;1.95;0.23;;;;;;;24.33;50.40;100964.27;2857438;81;21054;-92
2022/08/06 17:03:07;;;;;;;1.98;0.40;;;;;;;24.26;49.64;100959.32;2853878;81;21050;-91
2022/08/06 17:07:11;;;;;;;1.17;0.30;;;;;;;24.14;48.37;100964.98;2862527;81;21007;-93
2022/08/06 17:11:12;;;;;;;1.85;0.35;;;;;;;24.01;48.81;100973.36;2812044;82;21510;-92
2022/08/06 17:15:20;;;;;;;0.42;0.20;;;;;;;23.92;50.29;100973.17;2819899;83;21034;-94
2022/08/06 17:19:21;;;;;;;0.70;0.33;;;;;;;23.86;52.81;100972.61;2811973;83;20987;-96
2022/08/06 17:23:22;;;;;;;2.72;0.60;;;;;;;23.75;54.59;100980.78;2791958;83;21074;-92
2022/08/06 17:27:24;;;;;;;0.50;0.10;;;;;;;23.63;51.58;100975.05;2789186;82;21004;-87
2022/08/06 17:31:25;;;;;;;0.72;0.37;;;;;;;23.56;52.04;100978.20;2789074;84;21097;-94
2022/08/06 17:35:27;;;;;;;0.50;0.30;;;;;;;23.52;51.96;100977.23;2793914;84;21530;-95
2022/08/06 17:39:28;;;;;;;1.00;0.60;;;;;;;23.49;51.31;100975.45;2836407;82;21019;-90
2022/08/06 17:43:31;;;;;;;0.80;0.37;;;;;;;23.47;50.60;100977.50;2830513;83;21055;-89
2022/08/06 17:47:35;;;;;;;0.30;0.30;;;;;;;23.44;50.91;100975.17;2840014;82;21031;-92
2022/08/06 17:51:36;;;;;;;2.25;0.20;;;;;;;23.42;51.83;100976.75;2817516;83;21051;-92
2022/08/06 17:55:39;;;;;;;0.50;0.33;;;;;;;23.38;53.27;100984.43;2798582;83;21090;-85
2022/08/06 17:59:40;;;;;;;2.67;1.17;;;;;;;23.32;54.50;100980.28;2794926;82;21496;-85
2022/08/06 18:03:44;;;;;;;0.68;0.42;;;;;;;23.25;54.62;100986.50;2832632;82;21537;-94
2022/08/06 18:07:45;;;;;;;1.27;0.37;;;;;;;23.19;55.11;100984.53;2834162;83;21090;-93
2022/08/06 18:11:47;;;;;;;2.20;0.65;;;;;;;23.10;55.72;100984.31;2814089;83;20977;-90
2022/08/06 18:15:48;;;;;;;1.20;1.10;;;;;;;22.99;56.30;100988.88;2846039;83;21077;-89
2022/08/06 18:19:50;;;;;;;5.80;2.25;;;;;;;22.88;56.10;100991.06;2847765;83;21013;-91
2022/08/06 18:23:52;;;;;;;3.77;3.47;;;;;;;22.77;56.21;100992.39;2798197;83;20999;-90
2022/08/06 18:27:55;;;;;;;4.90;4.45;;;;;;;22.63;56.41;100997.31;2847767;79;21288;-91
2022/08/06 18:31:56;;;;;;;6.37;4.28;;;;;;;22.50;56.78;101005.61;2865006;81;20991;-90
2022/08/06 18:35:58;;;;;;;5.08;2.98;;;;;;;22.33;57.10;101004.91;2837924;82;21035;-91
2022/08/06 18:40:00;;;;;;;2.35;2.02;;;;;;;22.17;57.39;101009.14;2867544;81;21011;-90
2022/08/06 18:44:01;;;;;;;1.47;1.25;;;;;;;22.00;56.79;101016.59;2842876;82;21470;-94
2022/08/06 18:48:06;;;;;;;1.82;1.72;;;;;;;21.81;56.91;101016.08;2869381;81;21019;-92
2022/08/06 18:52:14;;;;;;;2.47;1.50;;;;;;;21.62;59.48;101025.00;2911927;79;21035;-91
2022/08/06 18:56:17;;;;;;;2.47;0.82;;;;;;;21.43;60.89;101017.36;2957207;79;21062;-94
2022/08/06 19:00:21;;;;;;;0.68;0.68;;;;;;;21.21;63.11;101026.11;2885145;81;21014;-92
2022/08/06 19:04:23;;;;;;;1.65;0.50;;;;;;;21.02;64.97;101029.26;2841483;79;71285;-66
2022/08/06 19:08:38;;;;;;;1.95;0.90;;;;;;;20.83;64.04;101030.88;2815688;82;21024;-59
2022/08/06 19:12:41;;;;;;;4.12;1.72;;;;;;;20.68;64.42;101029.39;2825448;84;20980;-63